createdAt,value
2022-08-04T00:01:57.532Z,25.38
2022-08-04T00:05:10.125Z,25.49
2022-08-04T00:08:09.481Z,25.50
2022-08-04T00:11:01.981Z,25.50
2022-08-04T00:13:59.778Z,25.47
2022-08-04T00:16:55.225Z,25.33
2022-08-04T00:19:44.286Z,25.34
2022-08-04T00:22:42.245Z,25.32
2022-08-04T00:25:15.129Z,25.27
2022-08-04T00:27:49.577Z,25.43
2022-08-04T00:30:34.113Z,25.32
2022-08-04T00:33:09.096Z,25.18
2022-08-04T00:36:07.496Z,25.18
2022-08-04T00:39:14.241Z,25.12
2022-08-04T00:42:22.560Z,25.12
2022-08-04T00:45:12.410Z,25.10
2022-08-04T00:48:06.568Z,25.03
2022-08-04T00:50:54.837Z,24.76
2022-08-04T00:53:31.863Z,24.33
2022-08-04T00:56:01.048Z,24.03
2022-08-04T00:58:51.310Z,24.08
2022-08-04T01:01:44.574Z,23.98
2022-08-04T01:04:36.259Z,24.18
2022-08-04T01:07:25.277Z,24.06
2022-08-04T01:10:26.365Z,23.95
2022-08-04T01:13:15.549Z,23.89
2022-08-04T01:16:05.589Z,23.78
2022-08-04T01:18:46.097Z,23.70
2022-08-04T01:21:35.673Z,23.63
2022-08-04T01:24:10.292Z,23.62
2022-08-04T01:27:13.257Z,23.80
2022-08-04T01:29:54.987Z,23.79
2022-08-04T01:32:40.560Z,23.81
2022-08-04T01:35:21.989Z,23.55
2022-08-04T01:38:21.789Z,23.23
2022-08-04T01:40:55.696Z,23.47
2022-08-04T01:43:28.295Z,23.18
2022-08-04T01:46:00.817Z,23.37
2022-08-04T01:48:31.766Z,23.56
2022-08-04T01:51:08.726Z,23.60
2022-08-04T01:53:40.372Z,23.48
2022-08-04T01:56:12.701Z,23.32
2022-08-04T01:58:55.156Z,23.76
2022-08-04T02:01:26.804Z,23.91
2022-08-04T02:04:19.519Z,23.90
2022-08-04T02:06:58.919Z,23.75
2022-08-04T02:09:33.233Z,23.98
2022-08-04T02:12:25.004Z,23.94
2022-08-04T02:14:56.417Z,23.83
2022-08-04T02:17:39.088Z,24.03
2022-08-04T02:20:31.180Z,23.89
2022-08-04T02:23:01.136Z,23.82
2022-08-04T02:30:00.315Z,23.61
2022-08-04T02:32:35.733Z,23.54
2022-08-04T02:35:16.428Z,23.03
2022-08-04T02:37:54.497Z,22.82
2022-08-04T02:40:29.745Z,23.11
2022-08-04T02:43:07.587Z,23.26
2022-08-04T02:45:45.382Z,23.28
2022-08-04T02:48:30.914Z,23.22
2022-08-04T02:51:06.203Z,23.23
2022-08-04T02:53:45.316Z,23.16
2022-08-04T02:56:28.885Z,23.32
2022-08-04T02:59:08.881Z,23.42
2022-08-04T03:01:57.522Z,23.39
2022-08-04T03:04:42.032Z,23.31
2022-08-04T03:07:32.025Z,23.36
2022-08-04T03:10:26.774Z,23.38
2022-08-04T03:13:22.696Z,23.50
2022-08-04T03:16:02.599Z,23.50
2022-08-04T03:18:34.050Z,23.49
2022-08-04T03:21:20.543Z,23.42
2022-08-04T03:24:07.343Z,23.55
2022-08-04T03:27:05.605Z,23.64
2022-08-04T03:29:43.683Z,23.73
2022-08-04T03:32:20.753Z,23.64
2022-08-04T03:35:22.812Z,23.77
2022-08-04T03:38:05.156Z,23.73
2022-08-04T03:40:59.234Z,23.56
2022-08-04T03:43:57.786Z,23.33
2022-08-04T03:46:27.886Z,23.40
2022-08-04T03:49:01.228Z,23.39
2022-08-04T03:51:56.441Z,23.43
2022-08-04T03:54:24.493Z,23.55
2022-08-04T03:57:02.958Z,23.74
2022-08-04T04:00:02.810Z,23.70
2022-08-04T04:03:08.916Z,23.68
2022-08-04T04:06:00.391Z,23.58
2022-08-04T04:08:43.334Z,23.57
2022-08-04T04:11:16.536Z,23.51
2022-08-04T04:14:05.080Z,22.95
2022-08-04T04:16:48.259Z,23.12
2022-08-04T04:19:34.968Z,23.26
2022-08-04T04:22:29.442Z,23.24
2022-08-04T04:25:14.959Z,23.35
2022-08-04T04:28:43.559Z,23.30
2022-08-04T04:31:18.407Z,23.33
2022-08-04T04:33:59.032Z,23.32
2022-08-04T04:36:46.048Z,23.11
2022-08-04T04:39:40.615Z,23.17
2022-08-04T04:42:27.840Z,22.92
2022-08-04T04:45:02.101Z,22.78
2022-08-04T04:48:06.941Z,22.93
2022-08-04T04:50:36.691Z,23.48
2022-08-04T04:53:27.376Z,23.41
2022-08-04T04:56:12.795Z,23.17
2022-08-04T04:58:49.096Z,22.97
2022-08-04T05:01:52.155Z,23.44
2022-08-04T05:04:50.004Z,23.33
2022-08-04T05:11:24.140Z,23.59
2022-08-04T05:14:36.573Z,23.99
2022-08-04T05:16:47.250Z,24.37
2022-08-04T05:19:24.256Z,24.30
2022-08-04T05:21:57.444Z,24.25
2022-08-04T05:24:28.737Z,24.21
2022-08-04T05:27:18.656Z,24.81
2022-08-04T05:29:51.901Z,24.78
2022-08-04T05:32:44.761Z,25.05
2022-08-04T05:36:17.950Z,25.05
2022-08-04T05:38:46.293Z,25.41
2022-08-04T05:41:55.590Z,25.44
2022-08-04T05:44:51.122Z,25.58
2022-08-04T05:47:26.226Z,25.66
2022-08-04T05:50:15.980Z,25.37
2022-08-04T05:53:15.571Z,25.63
2022-08-04T05:55:58.750Z,25.90
2022-08-04T05:58:35.406Z,25.95
2022-08-04T06:01:12.467Z,26.16
2022-08-04T06:09:59.882Z,26.61
2022-08-04T06:12:45.142Z,26.87
2022-08-04T06:15:28.444Z,26.94
2022-08-04T06:21:16.293Z,27.22
2022-08-04T06:23:56.124Z,27.55
2022-08-04T06:26:45.148Z,28.07
2022-08-04T06:29:50.804Z,29.70
2022-08-04T06:39:09.257Z,31.68
2022-08-04T06:42:01.947Z,33.28
2022-08-04T06:44:56.898Z,34.39
2022-08-04T06:51:35.180Z,35.34
2022-08-04T06:53:46.593Z,33.29
2022-08-04T06:56:15.233Z,34.65
2022-08-04T07:02:19.526Z,35.07
2022-08-04T07:04:54.205Z,35.03
2022-08-04T07:07:36.894Z,35.70
2022-08-04T07:10:11.636Z,38.11
2022-08-04T08:12:35.764Z,42.42
2022-08-04T09:53:57.751Z,42.20
2022-08-04T09:56:53.251Z,40.48
2022-08-04T10:03:05.833Z,39.37
2022-08-04T14:52:19.443Z,35.09
2022-08-04T15:32:05.381Z,34.37
2022-08-04T15:39:25.371Z,35.03
2022-08-04T16:53:53.106Z,34.14
2022-08-04T17:52:45.107Z,32.97
2022-08-04T17:55:20.471Z,32.77
2022-08-04T17:58:55.446Z,32.86
2022-08-04T18:01:55.601Z,32.65
2022-08-04T18:04:25.783Z,32.83
2022-08-04T18:07:01.241Z,32.89
2022-08-04T18:10:01.856Z,32.79
2022-08-04T18:12:49.085Z,32.54
2022-08-04T18:18:51.830Z,32.26
2022-08-04T18:21:59.629Z,32.13
2022-08-04T18:28:28.145Z,32.07
2022-08-04T18:32:33.179Z,32.21
2022-08-04T18:48:37.453Z,30.85
2022-08-04T19:25:15.841Z,31.02
2022-08-04T21:04:27.434Z,28.39
2022-08-04T21:07:25.289Z,28.37
2022-08-04T21:12:59.388Z,28.25
2022-08-04T22:03:52.890Z,27.20
2022-08-04T22:06:19.300Z,27.27
2022-08-04T22:08:51.341Z,27.08
2022-08-04T22:14:13.832Z,27.13
2022-08-04T22:16:51.111Z,27.33
2022-08-04T22:19:54.596Z,26.96
2022-08-04T22:22:29.519Z,26.89
2022-08-04T22:25:13.397Z,27.07
2022-08-04T22:31:55.699Z,26.91
2022-08-04T22:41:20.841Z,26.82
2022-08-04T22:44:08.264Z,26.85
2022-08-04T22:50:51.484Z,26.92
2022-08-04T22:54:38.071Z,26.81
2022-08-04T23:26:08.380Z,26.78
2022-08-04T23:28:29.772Z,26.62
2022-08-04T23:31:12.745Z,26.61
2022-08-04T23:34:06.309Z,26.54
